Halsey, Nebraska
Current Conditions -  °F | °C
As of 10:55 AM on Saturday 22 Nov 2014 (Local Time) from KTIF Reporting Station
Clear Clear  
Wind Chill: 16°   Ceiling: Unl
Heat Index: 16°   Visibility: 10mi
Dew Point: -5°   Wind: 18mph
Humidity: 25%   Direction: 240°WSW
Pressure: 29.66"   Gusts: 25mph
Location:  41.9°N, 100.27°W
Report Text: KTIF 221655Z AUTO 24016G22KT 10SM CLR 16/M04 A2966 RMK AO2 LTG DSNT S T01551045
Loading
Personal Weather Stations






























Interactive Weather Map New forecast layout! Learn more

10-Day Weather Forecast

Advertisements
Track Severe Weather on mobile